sensor_id;sensor_type;location;lat;lon;timestamp;P1;durP1;ratioP1;P2;durP2;ratioP2
45274;SDS011;31019;43.780;25.948;2023-12-20T00:01:06;28.48;;;26.05;;
45274;SDS011;31019;43.780;25.948;2023-12-20T00:03:33;26.52;;;24.38;;
45274;SDS011;31019;43.780;25.948;2023-12-20T00:06:03;24.55;;;22.55;;
45274;SDS011;31019;43.780;25.948;2023-12-20T00:08:30;23.35;;;21.55;;
45274;SDS011;31019;43.780;25.948;2023-12-20T00:10:57;27.52;;;24.75;;
45274;SDS011;31019;43.780;25.948;2023-12-20T00:13:24;24.60;;;22.65;;
45274;SDS011;31019;43.780;25.948;2023-12-20T00:15:51;27.63;;;25.50;;
45274;SDS011;31019;43.780;25.948;2023-12-20T00:18:20;32.35;;;29.85;;
45274;SDS011;31019;43.780;25.948;2023-12-20T00:20:47;31.88;;;29.58;;
45274;SDS011;31019;43.780;25.948;2023-12-20T00:23:15;25.75;;;23.85;;
45274;SDS011;31019;43.780;25.948;2023-12-20T00:25:42;31.15;;;28.50;;
45274;SDS011;31019;43.780;25.948;2023-12-20T00:28:09;25.35;;;23.50;;
45274;SDS011;31019;43.780;25.948;2023-12-20T00:30:36;28.17;;;26.08;;
45274;SDS011;31019;43.780;25.948;2023-12-20T00:33:04;22.80;;;21.10;;
45274;SDS011;31019;43.780;25.948;2023-12-20T00:35:30;27.90;;;25.40;;
45274;SDS011;31019;43.780;25.948;2023-12-20T00:37:58;26.58;;;24.58;;
45274;SDS011;31019;43.780;25.948;2023-12-20T00:40:26;25.23;;;23.30;;
45274;SDS011;31019;43.780;25.948;2023-12-20T00:42:53;24.10;;;22.20;;
45274;SDS011;31019;43.780;25.948;2023-12-20T00:45:20;25.05;;;23.20;;
45274;SDS011;31019;43.780;25.948;2023-12-20T00:47:47;25.27;;;23.35;;
45274;SDS011;31019;43.780;25.948;2023-12-20T00:50:14;26.73;;;24.73;;
45274;SDS011;31019;43.780;25.948;2023-12-20T00:52:43;25.55;;;23.60;;
45274;SDS011;31019;43.780;25.948;2023-12-20T00:55:20;24.13;;;22.23;;
45274;SDS011;31019;43.780;25.948;2023-12-20T00:57:48;25.98;;;24.00;;
45274;SDS011;31019;43.780;25.948;2023-12-20T01:00:15;29.90;;;27.90;;
45274;SDS011;31019;43.780;25.948;2023-12-20T01:02:43;26.17;;;24.17;;
45274;SDS011;31019;43.780;25.948;2023-12-20T01:05:11;30.42;;;28.23;;
45274;SDS011;31019;43.780;25.948;2023-12-20T01:07:38;26.40;;;24.40;;
45274;SDS011;31019;43.780;25.948;2023-12-20T01:10:05;24.17;;;22.40;;
45274;SDS011;31019;43.780;25.948;2023-12-20T01:12:32;24.00;;;22.20;;
45274;SDS011;31019;43.780;25.948;2023-12-20T01:15:01;25.45;;;23.55;;
45274;SDS011;31019;43.780;25.948;2023-12-20T01:17:28;27.60;;;25.50;;
45274;SDS011;31019;43.780;25.948;2023-12-20T01:19:54;27.33;;;25.33;;
45274;SDS011;31019;43.780;25.948;2023-12-20T01:22:21;25.63;;;23.85;;
45274;SDS011;31019;43.780;25.948;2023-12-20T01:24:48;28.33;;;26.13;;
45274;SDS011;31019;43.780;25.948;2023-12-20T01:27:15;27.10;;;25.10;;
45274;SDS011;31019;43.780;25.948;2023-12-20T01:29:42;25.77;;;23.88;;
45274;SDS011;31019;43.780;25.948;2023-12-20T01:32:10;29.83;;;27.52;;
45274;SDS011;31019;43.780;25.948;2023-12-20T01:34:37;29.08;;;26.88;;
45274;SDS011;31019;43.780;25.948;2023-12-20T01:37:04;25.95;;;23.95;;
45274;SDS011;31019;43.780;25.948;2023-12-20T01:39:30;24.40;;;22.45;;
45274;SDS011;31019;43.780;25.948;2023-12-20T01:41:58;23.48;;;21.67;;
45274;SDS011;31019;43.780;25.948;2023-12-20T01:44:25;25.42;;;23.45;;
45274;SDS011;31019;43.780;25.948;2023-12-20T01:46:52;28.85;;;26.55;;
45274;SDS011;31019;43.780;25.948;2023-12-20T01:49:27;26.63;;;24.60;;
45274;SDS011;31019;43.780;25.948;2023-12-20T01:51:55;25.55;;;23.63;;
45274;SDS011;31019;43.780;25.948;2023-12-20T01:54:21;25.55;;;23.63;;
45274;SDS011;31019;43.780;25.948;2023-12-20T01:56:49;25.02;;;23.23;;
45274;SDS011;31019;43.780;25.948;2023-12-20T01:59:17;23.05;;;21.35;;
45274;SDS011;31019;43.780;25.948;2023-12-20T02:01:46;27.17;;;25.00;;
45274;SDS011;31019;43.780;25.948;2023-12-20T02:04:16;27.02;;;24.33;;
45274;SDS011;31019;43.780;25.948;2023-12-20T02:06:45;26.20;;;24.30;;
45274;SDS011;31019;43.780;25.948;2023-12-20T02:11:49;26.70;;;24.67;;
45274;SDS011;31019;43.780;25.948;2023-12-20T02:14:23;26.63;;;24.15;;
45274;SDS011;31019;43.780;25.948;2023-12-20T02:16:50;29.90;;;27.73;;
45274;SDS011;31019;43.780;25.948;2023-12-20T02:22:34;26.83;;;24.75;;
45274;SDS011;31019;43.780;25.948;2023-12-20T02:25:01;28.55;;;26.35;;
45274;SDS011;31019;43.780;25.948;2023-12-20T02:27:31;25.63;;;23.70;;
45274;SDS011;31019;43.780;25.948;2023-12-20T02:29:58;29.02;;;26.92;;
45274;SDS011;31019;43.780;25.948;2023-12-20T02:32:25;30.02;;;27.85;;
45274;SDS011;31019;43.780;25.948;2023-12-20T02:34:59;26.10;;;24.10;;
45274;SDS011;31019;43.780;25.948;2023-12-20T02:37:38;28.75;;;26.52;;
45274;SDS011;31019;43.780;25.948;2023-12-20T02:40:06;28.48;;;26.27;;
45274;SDS011;31019;43.780;25.948;2023-12-20T02:42:33;31.02;;;28.83;;
45274;SDS011;31019;43.780;25.948;2023-12-20T02:45:00;29.85;;;27.65;;
45274;SDS011;31019;43.780;25.948;2023-12-20T02:47:27;32.28;;;29.85;;
45274;SDS011;31019;43.780;25.948;2023-12-20T02:49:56;30.75;;;28.45;;
45274;SDS011;31019;43.780;25.948;2023-12-20T02:52:23;29.08;;;26.88;;
45274;SDS011;31019;43.780;25.948;2023-12-20T02:54:54;28.27;;;26.17;;
45274;SDS011;31019;43.780;25.948;2023-12-20T02:57:21;26.92;;;24.83;;
45274;SDS011;31019;43.780;25.948;2023-12-20T02:59:48;28.20;;;26.10;;
45274;SDS011;31019;43.780;25.948;2023-12-20T03:02:15;30.10;;;27.90;;
45274;SDS011;31019;43.780;25.948;2023-12-20T03:04:42;31.90;;;29.50;;
45274;SDS011;31019;43.780;25.948;2023-12-20T03:07:09;32.83;;;30.33;;
45274;SDS011;31019;43.780;25.948;2023-12-20T03:09:37;33.30;;;30.80;;
45274;SDS011;31019;43.780;25.948;2023-12-20T03:12:05;33.45;;;30.90;;
45274;SDS011;31019;43.780;25.948;2023-12-20T03:14:32;33.92;;;31.45;;
45274;SDS011;31019;43.780;25.948;2023-12-20T03:17:01;29.98;;;27.77;;
45274;SDS011;31019;43.780;25.948;2023-12-20T03:19:28;29.88;;;27.58;;
45274;SDS011;31019;43.780;25.948;2023-12-20T03:21:55;28.45;;;26.35;;
45274;SDS011;31019;43.780;25.948;2023-12-20T03:24:22;32.25;;;29.38;;
45274;SDS011;31019;43.780;25.948;2023-12-20T03:26:48;31.58;;;29.20;;
45274;SDS011;31019;43.780;25.948;2023-12-20T03:29:17;31.98;;;29.48;;
45274;SDS011;31019;43.780;25.948;2023-12-20T03:31:44;37.58;;;34.88;;
45274;SDS011;31019;43.780;25.948;2023-12-20T03:34:11;29.58;;;27.48;;
45274;SDS011;31019;43.780;25.948;2023-12-20T03:36:38;29.30;;;27.17;;
45274;SDS011;31019;43.780;25.948;2023-12-20T03:39:05;28.90;;;26.70;;
45274;SDS011;31019;43.780;25.948;2023-12-20T03:41:32;29.05;;;26.85;;
45274;SDS011;31019;43.780;25.948;2023-12-20T03:43:59;33.05;;;30.55;;
45274;SDS011;31019;43.780;25.948;2023-12-20T03:46:27;30.23;;;27.77;;
45274;SDS011;31019;43.780;25.948;2023-12-20T03:48:54;27.90;;;25.70;;
45274;SDS011;31019;43.780;25.948;2023-12-20T03:51:24;30.90;;;28.70;;
45274;SDS011;31019;43.780;25.948;2023-12-20T03:53:51;31.70;;;29.40;;
45274;SDS011;31019;43.780;25.948;2023-12-20T03:56:18;26.00;;;24.10;;
45274;SDS011;31019;43.780;25.948;2023-12-20T03:58:44;27.23;;;25.13;;
45274;SDS011;31019;43.780;25.948;2023-12-20T04:01:11;26.00;;;23.85;;
45274;SDS011;31019;43.780;25.948;2023-12-20T04:03:40;25.52;;;23.45;;
45274;SDS011;31019;43.780;25.948;2023-12-20T04:06:09;28.30;;;26.10;;
45274;SDS011;31019;43.780;25.948;2023-12-20T04:08:38;28.65;;;26.45;;
45274;SDS011;31019;43.780;25.948;2023-12-20T04:11:06;26.08;;;24.02;;
45274;SDS011;31019;43.780;25.948;2023-12-20T04:13:33;26.75;;;24.75;;
45274;SDS011;31019;43.780;25.948;2023-12-20T04:16:00;25.63;;;23.65;;
45274;SDS011;31019;43.780;25.948;2023-12-20T04:18:27;24.50;;;22.70;;
45274;SDS011;31019;43.780;25.948;2023-12-20T04:20:56;24.95;;;23.00;;
45274;SDS011;31019;43.780;25.948;2023-12-20T04:23:23;24.90;;;22.80;;
45274;SDS011;31019;43.780;25.948;2023-12-20T04:25:50;24.50;;;22.50;;
45274;SDS011;31019;43.780;25.948;2023-12-20T04:28:17;24.70;;;22.88;;
45274;SDS011;31019;43.780;25.948;2023-12-20T04:30:43;23.85;;;22.05;;
45274;SDS011;31019;43.780;25.948;2023-12-20T04:33:10;24.45;;;22.55;;
45274;SDS011;31019;43.780;25.948;2023-12-20T04:35:37;24.23;;;22.15;;
45274;SDS011;31019;43.780;25.948;2023-12-20T04:38:07;23.83;;;22.10;;
45274;SDS011;31019;43.780;25.948;2023-12-20T04:40:34;25.80;;;23.90;;
45274;SDS011;31019;43.780;25.948;2023-12-20T04:43:01;24.08;;;22.17;;
45274;SDS011;31019;43.780;25.948;2023-12-20T04:45:27;25.38;;;23.38;;
45274;SDS011;31019;43.780;25.948;2023-12-20T04:47:54;25.50;;;23.23;;
45274;SDS011;31019;43.780;25.948;2023-12-20T04:50:22;25.92;;;24.02;;
45274;SDS011;31019;43.780;25.948;2023-12-20T04:52:48;27.10;;;25.20;;
45274;SDS011;31019;43.780;25.948;2023-12-20T04:55:17;26.20;;;24.20;;
45274;SDS011;31019;43.780;25.948;2023-12-20T04:57:44;24.08;;;22.20;;
45274;SDS011;31019;43.780;25.948;2023-12-20T05:00:12;24.55;;;22.40;;
45274;SDS011;31019;43.780;25.948;2023-12-20T05:02:40;22.90;;;21.00;;
45274;SDS011;31019;43.780;25.948;2023-12-20T05:05:08;33.33;;;30.63;;
45274;SDS011;31019;43.780;25.948;2023-12-20T05:07:35;30.75;;;28.65;;
45274;SDS011;31019;43.780;25.948;2023-12-20T05:12:35;24.58;;;22.67;;
45274;SDS011;31019;43.780;25.948;2023-12-20T05:15:02;26.33;;;24.23;;
45274;SDS011;31019;43.780;25.948;2023-12-20T05:17:29;24.65;;;21.90;;
45274;SDS011;31019;43.780;25.948;2023-12-20T05:19:56;28.15;;;26.25;;
45274;SDS011;31019;43.780;25.948;2023-12-20T05:22:23;26.17;;;24.58;;
45274;SDS011;31019;43.780;25.948;2023-12-20T05:24:50;22.70;;;21.00;;
45274;SDS011;31019;43.780;25.948;2023-12-20T05:27:17;22.60;;;20.90;;
45274;SDS011;31019;43.780;25.948;2023-12-20T05:29:46;22.10;;;20.50;;
45274;SDS011;31019;43.780;25.948;2023-12-20T05:32:13;22.20;;;20.60;;
45274;SDS011;31019;43.780;25.948;2023-12-20T05:34:40;22.52;;;20.92;;
45274;SDS011;31019;43.780;25.948;2023-12-20T05:37:06;23.50;;;21.85;;
45274;SDS011;31019;43.780;25.948;2023-12-20T05:39:33;21.92;;;20.42;;
45274;SDS011;31019;43.780;25.948;2023-12-20T05:42:00;24.83;;;23.13;;
45274;SDS011;31019;43.780;25.948;2023-12-20T05:44:27;22.48;;;20.88;;
45274;SDS011;31019;43.780;25.948;2023-12-20T05:46:55;21.88;;;20.38;;
45274;SDS011;31019;43.780;25.948;2023-12-20T05:49:22;23.23;;;21.08;;
45274;SDS011;31019;43.780;25.948;2023-12-20T05:51:49;20.42;;;19.02;;
45274;SDS011;31019;43.780;25.948;2023-12-20T05:54:16;22.02;;;20.55;;
45274;SDS011;31019;43.780;25.948;2023-12-20T05:56:44;23.65;;;22.05;;
45274;SDS011;31019;43.780;25.948;2023-12-20T05:59:12;25.25;;;23.55;;
45274;SDS011;31019;43.780;25.948;2023-12-20T06:01:38;23.08;;;21.48;;
45274;SDS011;31019;43.780;25.948;2023-12-20T06:04:07;22.17;;;20.60;;
45274;SDS011;31019;43.780;25.948;2023-12-20T06:06:33;22.30;;;20.80;;
45274;SDS011;31019;43.780;25.948;2023-12-20T06:09:00;29.63;;;27.45;;
45274;SDS011;31019;43.780;25.948;2023-12-20T06:11:28;31.35;;;28.70;;
45274;SDS011;31019;43.780;25.948;2023-12-20T06:13:55;38.60;;;34.10;;
45274;SDS011;31019;43.780;25.948;2023-12-20T06:16:21;33.10;;;30.55;;
45274;SDS011;31019;43.780;25.948;2023-12-20T06:18:48;33.67;;;31.27;;
45274;SDS011;31019;43.780;25.948;2023-12-20T06:21:16;32.80;;;30.50;;
45274;SDS011;31019;43.780;25.948;2023-12-20T06:23:43;37.45;;;34.72;;
45274;SDS011;31019;43.780;25.948;2023-12-20T06:26:11;33.70;;;31.20;;
45274;SDS011;31019;43.780;25.948;2023-12-20T06:28:38;36.38;;;32.92;;
45274;SDS011;31019;43.780;25.948;2023-12-20T06:31:05;37.78;;;34.75;;
45274;SDS011;31019;43.780;25.948;2023-12-20T06:33:32;41.10;;;37.35;;
45274;SDS011;31019;43.780;25.948;2023-12-20T06:35:58;44.75;;;41.45;;
45274;SDS011;31019;43.780;25.948;2023-12-20T06:38:35;45.42;;;42.08;;
45274;SDS011;31019;43.780;25.948;2023-12-20T06:41:02;46.97;;;43.45;;
45274;SDS011;31019;43.780;25.948;2023-12-20T06:43:29;48.10;;;44.53;;
45274;SDS011;31019;43.780;25.948;2023-12-20T06:45:57;43.60;;;39.80;;
45274;SDS011;31019;43.780;25.948;2023-12-20T06:48:24;34.72;;;32.13;;
45274;SDS011;31019;43.780;25.948;2023-12-20T06:50:51;34.20;;;31.55;;
45274;SDS011;31019;43.780;25.948;2023-12-20T06:53:18;38.63;;;35.72;;
45274;SDS011;31019;43.780;25.948;2023-12-20T06:55:47;34.42;;;31.92;;
45274;SDS011;31019;43.780;25.948;2023-12-20T06:58:13;33.53;;;31.00;;
45274;SDS011;31019;43.780;25.948;2023-12-20T07:00:40;31.02;;;28.73;;
45274;SDS011;31019;43.780;25.948;2023-12-20T07:03:08;31.08;;;28.88;;
45274;SDS011;31019;43.780;25.948;2023-12-20T07:05:41;30.45;;;28.25;;
45274;SDS011;31019;43.780;25.948;2023-12-20T07:10:39;33.10;;;30.75;;
45274;SDS011;31019;43.780;25.948;2023-12-20T07:13:08;30.88;;;28.67;;
45274;SDS011;31019;43.780;25.948;2023-12-20T07:15:35;31.20;;;28.52;;
45274;SDS011;31019;43.780;25.948;2023-12-20T07:18:02;34.78;;;31.83;;
45274;SDS011;31019;43.780;25.948;2023-12-20T07:20:30;34.67;;;31.20;;
45274;SDS011;31019;43.780;25.948;2023-12-20T07:22:57;34.95;;;32.00;;
45274;SDS011;31019;43.780;25.948;2023-12-20T07:25:24;37.88;;;34.13;;
45274;SDS011;31019;43.780;25.948;2023-12-20T07:27:51;34.13;;;31.52;;
45274;SDS011;31019;43.780;25.948;2023-12-20T07:30:19;31.23;;;28.92;;
45274;SDS011;31019;43.780;25.948;2023-12-20T07:32:46;29.83;;;27.50;;
45274;SDS011;31019;43.780;25.948;2023-12-20T07:35:13;30.20;;;27.67;;
45274;SDS011;31019;43.780;25.948;2023-12-20T07:37:40;30.48;;;28.35;;
45274;SDS011;31019;43.780;25.948;2023-12-20T07:40:09;28.77;;;26.77;;
45274;SDS011;31019;43.780;25.948;2023-12-20T07:42:36;29.45;;;27.25;;
45274;SDS011;31019;43.780;25.948;2023-12-20T07:45:03;28.88;;;26.85;;
45274;SDS011;31019;43.780;25.948;2023-12-20T07:47:32;30.35;;;27.70;;
45274;SDS011;31019;43.780;25.948;2023-12-20T07:49:59;26.60;;;24.70;;
45274;SDS011;31019;43.780;25.948;2023-12-20T07:52:26;27.88;;;26.00;;
45274;SDS011;31019;43.780;25.948;2023-12-20T07:54:52;25.45;;;23.65;;
45274;SDS011;31019;43.780;25.948;2023-12-20T07:57:20;26.27;;;24.48;;
45274;SDS011;31019;43.780;25.948;2023-12-20T07:59:46;25.55;;;23.85;;
45274;SDS011;31019;43.780;25.948;2023-12-20T08:02:13;23.92;;;22.13;;
45274;SDS011;31019;43.780;25.948;2023-12-20T08:04:42;24.55;;;22.85;;
45274;SDS011;31019;43.780;25.948;2023-12-20T08:07:09;23.67;;;22.17;;
45274;SDS011;31019;43.780;25.948;2023-12-20T08:09:36;22.92;;;21.25;;
45274;SDS011;31019;43.780;25.948;2023-12-20T08:12:03;24.95;;;23.45;;
45274;SDS011;31019;43.780;25.948;2023-12-20T08:14:30;22.77;;;21.27;;
45274;SDS011;31019;43.780;25.948;2023-12-20T08:16:57;21.30;;;20.00;;
45274;SDS011;31019;43.780;25.948;2023-12-20T08:19:24;20.52;;;19.13;;
45274;SDS011;31019;43.780;25.948;2023-12-20T08:21:52;21.77;;;20.27;;
45274;SDS011;31019;43.780;25.948;2023-12-20T08:24:19;23.52;;;21.92;;
45274;SDS011;31019;43.780;25.948;2023-12-20T08:26:48;24.00;;;21.98;;
45274;SDS011;31019;43.780;25.948;2023-12-20T08:29:15;24.38;;;22.88;;
45274;SDS011;31019;43.780;25.948;2023-12-20T08:31:42;23.88;;;22.48;;
45274;SDS011;31019;43.780;25.948;2023-12-20T08:34:09;25.55;;;24.05;;
45274;SDS011;31019;43.780;25.948;2023-12-20T08:36:36;24.45;;;22.88;;
45274;SDS011;31019;43.780;25.948;2023-12-20T08:39:06;24.45;;;23.05;;
45274;SDS011;31019;43.780;25.948;2023-12-20T08:41:34;24.38;;;22.98;;
45274;SDS011;31019;43.780;25.948;2023-12-20T08:44:01;25.27;;;23.67;;
45274;SDS011;31019;43.780;25.948;2023-12-20T08:46:28;23.02;;;21.63;;
45274;SDS011;31019;43.780;25.948;2023-12-20T08:48:56;25.17;;;23.60;;
45274;SDS011;31019;43.780;25.948;2023-12-20T08:51:23;26.27;;;24.63;;
45274;SDS011;31019;43.780;25.948;2023-12-20T08:53:50;25.38;;;23.77;;
45274;SDS011;31019;43.780;25.948;2023-12-20T08:56:19;24.75;;;23.20;;
45274;SDS011;31019;43.780;25.948;2023-12-20T08:58:46;23.92;;;22.42;;
45274;SDS011;31019;43.780;25.948;2023-12-20T09:01:13;25.20;;;23.50;;
45274;SDS011;31019;43.780;25.948;2023-12-20T09:03:40;24.15;;;22.65;;
45274;SDS011;31019;43.780;25.948;2023-12-20T09:06:07;24.88;;;23.27;;
45274;SDS011;31019;43.780;25.948;2023-12-20T09:08:34;25.88;;;24.27;;
45274;SDS011;31019;43.780;25.948;2023-12-20T09:11:04;24.27;;;22.77;;
45274;SDS011;31019;43.780;25.948;2023-12-20T09:13:32;23.90;;;22.20;;
45274;SDS011;31019;43.780;25.948;2023-12-20T09:15:59;28.67;;;26.50;;
45274;SDS011;31019;43.780;25.948;2023-12-20T09:18:26;22.70;;;21.30;;
45274;SDS011;31019;43.780;25.948;2023-12-20T09:20:53;22.50;;;21.10;;
45274;SDS011;31019;43.780;25.948;2023-12-20T09:23:20;27.38;;;25.67;;
45274;SDS011;31019;43.780;25.948;2023-12-20T09:25:50;23.00;;;21.50;;
45274;SDS011;31019;43.780;25.948;2023-12-20T09:28:17;23.20;;;21.70;;
45274;SDS011;31019;43.780;25.948;2023-12-20T09:30:45;25.55;;;20.58;;
45274;SDS011;31019;43.780;25.948;2023-12-20T09:33:13;21.50;;;20.10;;
45274;SDS011;31019;43.780;25.948;2023-12-20T09:35:41;23.88;;;22.13;;
45274;SDS011;31019;43.780;25.948;2023-12-20T09:38:09;22.48;;;21.08;;
45274;SDS011;31019;43.780;25.948;2023-12-20T09:40:36;20.98;;;19.58;;
45274;SDS011;31019;43.780;25.948;2023-12-20T09:43:05;20.70;;;19.20;;
45274;SDS011;31019;43.780;25.948;2023-12-20T09:45:36;22.08;;;20.50;;
45274;SDS011;31019;43.780;25.948;2023-12-20T09:48:07;39.53;;;19.73;;
45274;SDS011;31019;43.780;25.948;2023-12-20T09:50:37;21.60;;;20.20;;
45274;SDS011;31019;43.780;25.948;2023-12-20T09:53:04;21.13;;;19.73;;
45274;SDS011;31019;43.780;25.948;2023-12-20T09:55:34;20.80;;;19.40;;
45274;SDS011;31019;43.780;25.948;2023-12-20T09:58:02;19.98;;;18.67;;
45274;SDS011;31019;43.780;25.948;2023-12-20T10:00:31;24.13;;;22.10;;
45274;SDS011;31019;43.780;25.948;2023-12-20T10:05:34;21.70;;;20.30;;
45274;SDS011;31019;43.780;25.948;2023-12-20T10:08:01;21.02;;;19.55;;
45274;SDS011;31019;43.780;25.948;2023-12-20T10:10:28;23.13;;;21.73;;
45274;SDS011;31019;43.780;25.948;2023-12-20T10:13:02;20.98;;;19.58;;
45274;SDS011;31019;43.780;25.948;2023-12-20T10:15:30;20.60;;;19.10;;
45274;SDS011;31019;43.780;25.948;2023-12-20T10:17:58;20.55;;;19.05;;
45274;SDS011;31019;43.780;25.948;2023-12-20T10:20:25;22.25;;;20.65;;
45274;SDS011;31019;43.780;25.948;2023-12-20T10:22:55;21.67;;;20.08;;
45274;SDS011;31019;43.780;25.948;2023-12-20T10:25:23;20.30;;;18.90;;
45274;SDS011;31019;43.780;25.948;2023-12-20T10:30:38;22.10;;;20.70;;
45274;SDS011;31019;43.780;25.948;2023-12-20T10:33:06;21.73;;;20.13;;
45274;SDS011;31019;43.780;25.948;2023-12-20T10:35:36;20.65;;;19.25;;
45274;SDS011;31019;43.780;25.948;2023-12-20T10:38:05;21.80;;;20.30;;
45274;SDS011;31019;43.780;25.948;2023-12-20T10:40:34;20.98;;;19.48;;
45274;SDS011;31019;43.780;25.948;2023-12-20T10:43:04;21.88;;;20.30;;
45274;SDS011;31019;43.780;25.948;2023-12-20T10:45:31;21.55;;;20.00;;
45274;SDS011;31019;43.780;25.948;2023-12-20T10:48:01;22.95;;;21.45;;
45274;SDS011;31019;43.780;25.948;2023-12-20T10:50:29;23.27;;;21.77;;
45274;SDS011;31019;43.780;25.948;2023-12-20T10:52:56;21.70;;;20.20;;
45274;SDS011;31019;43.780;25.948;2023-12-20T10:55:25;21.77;;;20.27;;
45274;SDS011;31019;43.780;25.948;2023-12-20T10:57:53;22.88;;;21.17;;
45274;SDS011;31019;43.780;25.948;2023-12-20T11:00:26;23.58;;;21.67;;
45274;SDS011;31019;43.780;25.948;2023-12-20T11:02:55;23.80;;;21.90;;
45274;SDS011;31019;43.780;25.948;2023-12-20T11:05:31;25.85;;;23.95;;
45274;SDS011;31019;43.780;25.948;2023-12-20T11:08:06;25.70;;;23.50;;
45274;SDS011;31019;43.780;25.948;2023-12-20T11:10:39;24.15;;;22.35;;
45274;SDS011;31019;43.780;25.948;2023-12-20T11:13:16;23.98;;;22.27;;
45274;SDS011;31019;43.780;25.948;2023-12-20T11:15:49;23.48;;;21.77;;
45274;SDS011;31019;43.780;25.948;2023-12-20T11:18:16;23.73;;;22.13;;
45274;SDS011;31019;43.780;25.948;2023-12-20T11:20:43;25.88;;;23.90;;
45274;SDS011;31019;43.780;25.948;2023-12-20T11:23:11;24.90;;;23.00;;
45274;SDS011;31019;43.780;25.948;2023-12-20T11:25:48;26.25;;;24.25;;
45274;SDS011;31019;43.780;25.948;2023-12-20T11:28:21;28.27;;;26.17;;
45274;SDS011;31019;43.780;25.948;2023-12-20T11:30:50;25.10;;;23.10;;
45274;SDS011;31019;43.780;25.948;2023-12-20T11:33:21;23.65;;;21.75;;
45274;SDS011;31019;43.780;25.948;2023-12-20T11:35:48;23.75;;;21.65;;
45274;SDS011;31019;43.780;25.948;2023-12-20T11:38:15;24.20;;;22.40;;
45274;SDS011;31019;43.780;25.948;2023-12-20T11:40:42;23.77;;;21.98;;
45274;SDS011;31019;43.780;25.948;2023-12-20T11:43:11;28.40;;;25.75;;
45274;SDS011;31019;43.780;25.948;2023-12-20T11:45:38;27.40;;;25.40;;
45274;SDS011;31019;43.780;25.948;2023-12-20T11:48:23;26.15;;;24.15;;
45274;SDS011;31019;43.780;25.948;2023-12-20T11:50:50;28.15;;;26.05;;
45274;SDS011;31019;43.780;25.948;2023-12-20T11:53:17;24.00;;;22.20;;
45274;SDS011;31019;43.780;25.948;2023-12-20T11:55:47;24.60;;;22.60;;
45274;SDS011;31019;43.780;25.948;2023-12-20T11:58:15;25.05;;;23.15;;
45274;SDS011;31019;43.780;25.948;2023-12-20T12:00:42;24.50;;;22.70;;
45274;SDS011;31019;43.780;25.948;2023-12-20T12:03:09;23.55;;;21.85;;
45274;SDS011;31019;43.780;25.948;2023-12-20T12:05:36;25.35;;;23.48;;
45274;SDS011;31019;43.780;25.948;2023-12-20T12:08:03;26.30;;;24.50;;
45274;SDS011;31019;43.780;25.948;2023-12-20T12:10:30;24.35;;;22.55;;
45274;SDS011;31019;43.780;25.948;2023-12-20T12:12:58;23.98;;;22.17;;
45274;SDS011;31019;43.780;25.948;2023-12-20T12:15:28;25.35;;;23.45;;
45274;SDS011;31019;43.780;25.948;2023-12-20T12:17:56;27.10;;;25.20;;
45274;SDS011;31019;43.780;25.948;2023-12-20T12:20:24;24.15;;;22.35;;
45274;SDS011;31019;43.780;25.948;2023-12-20T12:22:57;22.67;;;21.05;;
45274;SDS011;31019;43.780;25.948;2023-12-20T12:25:25;24.27;;;22.48;;
45274;SDS011;31019;43.780;25.948;2023-12-20T12:27:52;22.25;;;20.55;;
45274;SDS011;31019;43.780;25.948;2023-12-20T12:30:19;22.35;;;20.73;;
45274;SDS011;31019;43.780;25.948;2023-12-20T12:32:49;22.00;;;20.40;;
45274;SDS011;31019;43.780;25.948;2023-12-20T12:35:17;27.17;;;25.27;;
45274;SDS011;31019;43.780;25.948;2023-12-20T12:37:45;26.80;;;24.80;;
45274;SDS011;31019;43.780;25.948;2023-12-20T12:40:13;21.65;;;19.95;;
45274;SDS011;31019;43.780;25.948;2023-12-20T12:42:41;22.65;;;20.95;;
45274;SDS011;31019;43.780;25.948;2023-12-20T12:45:09;25.63;;;23.63;;
45274;SDS011;31019;43.780;25.948;2023-12-20T12:47:37;25.20;;;23.20;;
45274;SDS011;31019;43.780;25.948;2023-12-20T12:50:06;26.63;;;24.27;;
45274;SDS011;31019;43.780;25.948;2023-12-20T12:52:36;22.23;;;20.52;;
45274;SDS011;31019;43.780;25.948;2023-12-20T12:55:04;22.40;;;20.70;;
45274;SDS011;31019;43.780;25.948;2023-12-20T12:57:31;22.60;;;20.90;;
45274;SDS011;31019;43.780;25.948;2023-12-20T12:59:58;22.75;;;20.92;;
45274;SDS011;31019;43.780;25.948;2023-12-20T13:02:25;22.63;;;20.80;;
45274;SDS011;31019;43.780;25.948;2023-12-20T13:04:52;22.80;;;21.10;;
45274;SDS011;31019;43.780;25.948;2023-12-20T13:07:20;22.90;;;21.20;;
45274;SDS011;31019;43.780;25.948;2023-12-20T13:09:47;23.15;;;21.25;;
45274;SDS011;31019;43.780;25.948;2023-12-20T13:12:14;22.23;;;20.55;;
45274;SDS011;31019;43.780;25.948;2023-12-20T13:14:41;21.80;;;20.10;;
45274;SDS011;31019;43.780;25.948;2023-12-20T13:17:08;24.65;;;22.95;;
45274;SDS011;31019;43.780;25.948;2023-12-20T13:19:35;23.60;;;21.80;;
45274;SDS011;31019;43.780;25.948;2023-12-20T13:22:01;21.60;;;20.10;;
45274;SDS011;31019;43.780;25.948;2023-12-20T13:24:30;24.13;;;22.23;;
45274;SDS011;31019;43.780;25.948;2023-12-20T13:26:57;26.35;;;24.45;;
45274;SDS011;31019;43.780;25.948;2023-12-20T13:29:24;27.63;;;25.63;;
45274;SDS011;31019;43.780;25.948;2023-12-20T13:31:52;24.70;;;22.90;;
45274;SDS011;31019;43.780;25.948;2023-12-20T13:34:18;26.23;;;24.23;;
45274;SDS011;31019;43.780;25.948;2023-12-20T13:36:45;25.85;;;24.15;;
45274;SDS011;31019;43.780;25.948;2023-12-20T13:39:12;24.63;;;22.92;;
45274;SDS011;31019;43.780;25.948;2023-12-20T13:41:41;24.40;;;22.65;;
45274;SDS011;31019;43.780;25.948;2023-12-20T13:44:08;26.65;;;24.85;;
45274;SDS011;31019;43.780;25.948;2023-12-20T13:46:37;27.83;;;25.88;;
45274;SDS011;31019;43.780;25.948;2023-12-20T13:49:09;27.92;;;25.98;;
45274;SDS011;31019;43.780;25.948;2023-12-20T13:51:37;28.10;;;26.02;;
45274;SDS011;31019;43.780;25.948;2023-12-20T13:54:04;27.45;;;25.55;;
45274;SDS011;31019;43.780;25.948;2023-12-20T13:56:31;29.70;;;27.70;;
45274;SDS011;31019;43.780;25.948;2023-12-20T13:59:00;28.40;;;26.40;;
45274;SDS011;31019;43.780;25.948;2023-12-20T14:01:27;29.08;;;27.08;;
45274;SDS011;31019;43.780;25.948;2023-12-20T14:03:54;29.88;;;27.75;;
45274;SDS011;31019;43.780;25.948;2023-12-20T14:06:21;27.05;;;25.08;;
45274;SDS011;31019;43.780;25.948;2023-12-20T14:08:48;27.20;;;25.15;;
45274;SDS011;31019;43.780;25.948;2023-12-20T14:11:16;27.20;;;24.98;;
45274;SDS011;31019;43.780;25.948;2023-12-20T14:13:50;27.88;;;25.83;;
45274;SDS011;31019;43.780;25.948;2023-12-20T14:16:33;29.83;;;27.73;;
45274;SDS011;31019;43.780;25.948;2023-12-20T14:19:00;30.38;;;28.17;;
45274;SDS011;31019;43.780;25.948;2023-12-20T14:21:28;31.80;;;29.50;;
45274;SDS011;31019;43.780;25.948;2023-12-20T14:23:55;29.95;;;27.75;;
45274;SDS011;31019;43.780;25.948;2023-12-20T14:26:22;32.67;;;30.58;;
45274;SDS011;31019;43.780;25.948;2023-12-20T14:28:49;33.13;;;30.83;;